• Join FlightAware (Why Join?)
  • Login
  • US Flag 
03:01AM EDT


 

Airport Tracker/Info


-or-


 

Live Flight TrackerFlight Track Log ✈ N731ZF ✈ 11-Apr-2013 ✈ KANK - KGJT

Flight Track Log - Related Links

Times and Time Zones

All times are in EDT time to prevent confusion due to time zone crossing. See the N731ZF flight status page for this flight to view local times or setup timezone preferences in your user account.

Time Position Orientation Groundspeed Altitude Reporting Facility
EDT Latitude Longitude Course Direction KTS MPH feet Rate Location/Type
03:07PM 38.7544 -106.6950 285° West 126 145 17,500  Level Denver Center
03:08PM 38.7631 -106.7358 285° West 121 139 17,700 120 Climbing Denver Center
03:09PM 38.7722 -106.7794 285° West 125 144 17,800 120 Climbing Denver Center
03:10PM 38.7811 -106.8175 287° West 116 133 18,000 60 Climbing Denver Center
03:11PM 38.7889 -106.8578 284° West 114 131 18,000  Level Denver Center
03:12PM 38.7958 -106.9086 280° West 135 155 18,000  Level Denver Center
03:13PM 38.8067 -106.9572 286° West 141 162 18,000 -60 Level Denver Center
03:14PM 38.8197 -107.0161 286° West 142 163 17,900  Descending Denver Center
03:15PM 38.8272 -107.0597 282° West 131 151 18,000  Climbing Denver Center
03:16PM 38.8369 -107.1078 285° West 135 155 18,000 -60 Level Denver Center
03:17PM 38.8486 -107.1536 288° West 136 157 17,900  Descending Denver Center
03:18PM 38.8581 -107.2036 284° West 134 154 18,000  Climbing Denver Center
03:19PM 38.8681 -107.2489 286° West 135 155 18,000  Level Denver Center
03:20PM 38.8775 -107.3050 282° West 142 163 18,000  Level Denver Center
03:21PM 38.8878 -107.3528 285° West 145 167 18,000  Level Denver Center
03:22PM 38.8986 -107.4072 284° West 142 163 18,000  Level Denver Center
03:23PM 38.9086 -107.4553 285° West 144 166 18,000  Level Denver Center
03:24PM 38.9183 -107.5039 284° West 145 167 18,000  Level Denver Center
03:25PM 38.9311 -107.5622 286° West 151 174 18,000  Level Denver Center
03:26PM 38.9406 -107.6100 284° West 147 169 18,000  Level Denver Center
03:27PM 38.9514 -107.6686 283° West 149 171 18,000  Level Denver Center
03:28PM 38.9619 -107.7161 286° West 146 168 18,000 -180 Level Denver Center
03:29PM 38.9728 -107.7753 283° West 151 174 17,700 -420 Descending Denver Center
03:30PM 38.9831 -107.8261 285° West 153 176 17,200 -420 Descending Denver Center
03:31PM 38.9925 -107.8761 284° West 150 173 16,900 -420 Descending Denver Center
03:32PM 39.0050 -107.9317 286° West 148 170 16,400 -480 Descending Denver Center
03:34PM 39.0144 -107.9781 285° West 144 166 16,000 -420 Descending Denver Center
03:35PM 39.0250 -108.0344 284° West 144 166 15,600 -420 Descending Denver Center
03:36PM 39.0311 -108.0817 279° West 142 163 15,200 -360 Descending Denver Center
03:37PM 39.0067 -108.1325 238° Southwest 146 168 14,900 -420 Descending Denver Center
03:38PM 38.9850 -108.1756 237° Southwest 150 173 14,400 -540 Descending Denver Center
03:39PM 38.9625 -108.2239 239° Southwest 149 171 13,800 -660 Descending Denver Center
03:40PM 38.9397 -108.2725 239° Southwest 147 169 13,100 -780 Descending Denver Center
03:41PM 38.9200 -108.3131 238° Southwest 135 155 12,200 -840 Descending Denver Center
03:42PM 38.9017 -108.3544 240° Southwest 133 153 11,400 -840 Descending Denver Center
03:43PM 38.9286 -108.3847 319° Northwest 123 142 10,500 -900 Descending Denver Center
03:44PM 38.9594 -108.4033 335° Northwest 123 142 9,600 -1,020 Descending Denver Center
03:45PM 38.9961 -108.4111 351° North 125 144 8,500 -1,020 Descending Denver Center
03:46PM 39.0344 -108.4189 351° North 137 158 7,600 -1,020 Descending Denver Center
03:47PM 39.0689 -108.4322 343° North 129 148 6,500 -840 Descending Denver Center
03:48PM 39.0953 -108.4744 309° West 124 143 5,800 -540 Descending Denver Center
03:49PM 39.1108 -108.5011 307° West 101 116 5,300 -480 Descending Denver Center
03:50PM 39.1211 -108.5197 305° West 88 101 4,900 -420 Descending Denver Center
03:52PM 39.1167 -108.5167 311° West  Level FlightAware Approximate
03:59PM 39.1224 -108.5267 311° West  Level Estimated
04:00PM 39.1224 -108.5267 311° West  Level Estimated